Time;durP1;ratioP1;P1;durP2;ratioP2;P2;SDS_P1;SDS_P2;PMS_P1;PMS_P2;Temp;Humidity;BMP_temperature;BMP_pressure;BME280_temperature;BME280_humidity;BME280_pressure;Samples;Min_cycle;Max_cycle;Signal;HPM_P1;HPM_P2
2023/01/21 00:00:01;;;;;;;7.20;3.90;;;-2.00;98.00;;;;;;5097190;28;20479;-65
2023/01/21 00:02:30;;;;;;;3.87;3.70;;;-2.00;98.00;;;;;;5115035;28;20460;-65
2023/01/21 00:04:57;;;;;;;4.70;2.97;;;-2.00;98.00;;;;;;5115294;28;20454;-65
2023/01/21 00:07:24;;;;;;;4.97;4.60;;;-2.00;98.00;;;;;;5115059;28;20472;-65
2023/01/21 00:09:51;;;;;;;6.20;3.83;;;-2.10;98.00;;;;;;5115053;28;20452;-65
2023/01/21 00:12:19;;;;;;;17.53;5.23;;;-2.20;98.00;;;;;;5096923;28;20829;-65
2023/01/21 00:14:46;;;;;;;7.17;4.57;;;-2.20;98.00;;;;;;5114778;28;20461;-65
2023/01/21 00:17:13;;;;;;;6.93;4.97;;;-2.20;98.00;;;;;;5096812;28;20450;-65
2023/01/21 00:19:43;;;;;;;14.03;4.00;;;-2.20;98.00;;;;;;5114858;28;20493;-65
2023/01/21 00:22:10;;;;;;;6.57;3.50;;;-2.30;98.00;;;;;;5096661;28;20461;-65
2023/01/21 00:24:37;;;;;;;7.23;4.13;;;-2.40;98.00;;;;;;5115082;28;20453;-64
2023/01/21 00:27:04;;;;;;;4.63;2.70;;;-2.40;98.00;;;;;;5114864;28;20456;-65
2023/01/21 00:29:31;;;;;;;12.93;4.73;;;-2.30;98.00;;;;;;5115002;28;20229;-65
2023/01/21 00:31:58;;;;;;;3.47;3.10;;;-2.40;98.00;;;;;;5114529;28;20460;-65
2023/01/21 00:34:25;;;;;;;8.77;4.60;;;-2.50;98.00;;;;;;5114829;28;20462;-65
2023/01/21 00:36:54;;;;;;;6.40;3.88;;;-2.50;98.00;;;;;;5114345;28;20462;-65
2023/01/21 00:39:22;;;;;;;7.60;3.93;;;-2.40;98.00;;;;;;5114536;28;20222;-65
2023/01/21 00:41:49;;;;;;;5.43;3.03;;;-2.50;98.00;;;;;;5096234;28;20464;-65
2023/01/21 00:44:18;;;;;;;3.57;2.70;;;-2.60;98.00;;;;;;5114496;28;20455;-65
2023/01/21 00:46:45;;;;;;;5.87;4.20;;;-2.60;98.00;;;;;;5096212;28;20555;-65
2023/01/21 00:49:14;;;;;;;3.23;3.03;;;-2.60;98.00;;;;;;5114254;28;20831;-65
2023/01/21 00:51:41;;;;;;;3.83;3.00;;;-2.60;98.00;;;;;;5114195;28;20449;-66
2023/01/21 00:54:10;;;;;;;7.03;3.83;;;-2.50;98.00;;;;;;5114022;28;20945;-65
2023/01/21 00:56:37;;;;;;;9.80;4.50;;;-2.50;98.00;;;;;;5114025;28;20550;-66
2023/01/21 00:59:04;;;;;;;6.70;3.97;;;-2.50;98.00;;;;;;5113605;28;20492;-65
2023/01/21 01:01:37;;;;;;;3.10;2.97;;;-2.60;98.00;;;;;;5113980;28;20444;-65
2023/01/21 01:04:05;;;;;;;5.97;3.87;;;-2.60;98.00;;;;;;5114117;28;20457;-64
2023/01/21 01:06:33;;;;;;;6.50;3.17;;;-2.60;98.00;;;;;;5113911;28;20456;-65
2023/01/21 01:09:00;;;;;;;11.00;3.77;;;-2.60;98.00;;;;;;5113706;28;20463;-65
2023/01/21 01:11:30;;;;;;;7.70;4.33;;;-2.70;98.00;;;;;;5113903;28;20461;-64
2023/01/21 01:13:59;;;;;;;8.70;3.50;;;-2.70;98.00;;;;;;5113888;28;20452;-65
2023/01/21 01:16:26;;;;;;;4.82;3.13;;;-2.70;98.00;;;;;;5113793;28;20455;-64
2023/01/21 01:18:53;;;;;;;5.33;3.47;;;-2.60;98.00;;;;;;5113642;28;20219;-65
2023/01/21 01:21:21;;;;;;;5.67;3.77;;;-2.60;98.00;;;;;;5113834;28;20456;-66
2023/01/21 01:23:52;;;;;;;6.73;3.40;;;-2.60;98.00;;;;;;5113562;28;20507;-65
2023/01/21 01:26:21;;;;;;;12.60;3.83;;;-2.70;98.00;;;;;;5096305;28;20463;-66
2023/01/21 01:28:50;;;;;;;8.10;4.87;;;-2.70;98.00;;;;;;5113706;28;20800;-65
2023/01/21 01:31:18;;;;;;;3.67;2.85;;;-2.70;98.00;;;;;;5095756;28;20921;-65
2023/01/21 01:33:48;;;;;;;8.03;3.53;;;-2.80;98.00;;;;;;5113450;28;20205;-65
2023/01/21 01:36:17;;;;;;;7.80;3.30;;;-2.70;98.00;;;;;;5113302;28;21032;-65
2023/01/21 01:38:45;;;;;;;4.05;3.25;;;-2.70;98.00;;;;;;5113214;28;20494;-65
2023/01/21 01:41:16;;;;;;;4.60;2.60;;;-2.70;98.00;;;;;;5113298;28;20559;-64
2023/01/21 01:43:54;;;;;;;3.42;2.95;;;-2.70;98.00;;;;;;5112749;28;20453;-65
2023/01/21 01:46:22;;;;;;;4.27;3.27;;;-2.80;98.00;;;;;;5112976;28;20233;-65
2023/01/21 01:48:54;;;;;;;3.43;2.90;;;-2.80;98.00;;;;;;5112842;28;20456;-65
2023/01/21 01:51:26;;;;;;;3.43;2.93;;;-2.90;98.00;;;;;;5113120;28;20452;-65
2023/01/21 01:53:53;;;;;;;7.60;3.17;;;-3.10;98.00;;;;;;5094908;28;20551;-65
2023/01/21 01:56:21;;;;;;;4.33;3.03;;;-3.10;98.00;;;;;;5113022;28;20461;-66
2023/01/21 01:58:50;;;;;;;3.97;2.53;;;-3.10;98.00;;;;;;5112749;28;20479;-65
2023/01/21 02:01:18;;;;;;;6.07;3.60;;;-3.10;98.00;;;;;;5112733;28;20851;-66
2023/01/21 02:03:53;;;;;;;6.87;3.80;;;-3.00;98.00;;;;;;5112843;28;20468;-65
2023/01/21 02:06:20;;;;;;;9.38;4.20;;;-3.10;98.00;;;;;;5112924;28;20509;-64
2023/01/21 02:08:48;;;;;;;8.40;3.85;;;-3.20;98.00;;;;;;5112734;28;20546;-65
2023/01/21 02:11:17;;;;;;;3.97;2.77;;;-3.30;98.00;;;;;;5093987;28;20206;-65
2023/01/21 02:13:48;;;;;;;10.52;4.22;;;-3.30;98.00;;;;;;5112532;28;20820;-66
2023/01/21 02:16:47;;;;;;;3.50;3.30;;;-3.30;98.00;;;;;;5112915;28;20688;-65
2023/01/21 02:19:46;;;;;;;3.30;2.75;;;-3.40;98.00;;;;;;5112627;28;20517;-65
2023/01/21 02:22:26;;;;;;;5.20;3.00;;;-3.30;98.00;;;;;;5058558;28;20203;-65
2023/01/21 02:25:37;;;;;;;5.73;3.60;;;-3.30;98.00;;;;;;5112666;28;20210;-65
2023/01/21 02:28:31;;;;;;;24.73;4.33;;;-3.20;98.00;;;;;;5094484;28;20448;-65
2023/01/21 02:31:26;;;;;;;5.07;3.35;;;-3.20;98.00;;;;;;5112683;28;20439;-65
2023/01/21 02:34:02;;;;;;;2.35;1.90;;;-3.30;98.00;;;;;;5112676;28;20619;-65
2023/01/21 02:36:40;;;;;;;2.92;2.30;;;-3.50;98.00;;;;;;5112264;28;20202;-65
2023/01/21 02:39:20;;;;;;;3.92;3.03;;;-3.50;98.00;;;;;;5112290;28;20313;-64
2023/01/21 02:41:58;;;;;;;6.00;3.88;;;-3.50;98.00;;;;;;5095243;28;20193;-65
2023/01/21 02:44:33;;;;;;;3.88;2.35;;;-3.60;98.00;;;;;;5112427;28;20208;-65
2023/01/21 02:47:10;;;;;;;4.60;2.95;;;-3.50;98.00;;;;;;5094949;28;20201;-65
2023/01/21 02:49:42;;;;;;;5.43;3.38;;;-3.60;98.00;;;;;;5093966;28;20197;-65
2023/01/21 02:52:17;;;;;;;5.15;2.95;;;-3.60;98.00;;;;;;5112036;28;20217;-64
2023/01/21 02:54:53;;;;;;;7.22;4.05;;;-3.70;98.00;;;;;;5111982;28;20201;-65
2023/01/21 02:57:31;;;;;;;10.80;4.95;;;-3.50;98.00;;;;;;5111909;28;20590;-64
2023/01/21 03:00:00;;;;;;;4.97;3.35;;;-3.50;98.00;;;;;;5112235;28;20233;-65
2023/01/21 03:02:39;;;;;;;3.10;2.90;;;-3.60;98.00;;;;;;5112063;28;20224;-65
2023/01/21 03:05:14;;;;;;;4.07;2.45;;;-3.60;98.00;;;;;;5112224;28;20201;-65
2023/01/21 03:07:47;;;;;;;3.95;3.08;;;-3.60;98.00;;;;;;5111880;28;20208;-65
2023/01/21 03:10:26;;;;;;;5.45;3.40;;;-3.70;98.00;;;;;;5112119;28;20205;-64
2023/01/21 03:13:00;;;;;;;5.63;2.58;;;-3.70;98.00;;;;;;5111866;28;20208;-65
2023/01/21 03:18:23;;;;;;;6.10;3.08;;;-3.60;98.00;;;;;;5112099;28;20205;-65
2023/01/21 03:20:55;;;;;;;3.60;2.67;;;-3.70;98.00;;;;;;5111892;28;20430;-65
2023/01/21 03:23:28;;;;;;;8.02;3.45;;;-3.70;98.00;;;;;;5116100;28;20266;-65
2023/01/21 03:25:57;;;;;;;4.60;2.95;;;-3.70;98.00;;;;;;5098042;28;20674;-65
2023/01/21 03:28:26;;;;;;;3.30;2.15;;;-3.70;98.00;;;;;;5116252;28;20206;-64
2023/01/21 03:30:56;;;;;;;4.72;2.75;;;-3.70;98.00;;;;;;5098299;28;20235;-65
2023/01/21 03:33:24;;;;;;;5.05;3.70;;;-3.70;98.00;;;;;;5116011;28;20229;-65
2023/01/21 03:35:55;;;;;;;7.13;5.10;;;-3.70;98.00;;;;;;5115665;28;20620;-64
2023/01/21 03:38:28;;;;;;;2.92;2.67;;;-3.80;98.00;;;;;;5115763;28;20202;-64
2023/01/21 03:41:01;;;;;;;8.52;3.75;;;-3.80;98.00;;;;;;5097494;28;20581;-65
2023/01/21 03:43:32;;;;;;;2.55;2.00;;;-3.70;98.00;;;;;;5115596;28;20201;-65
2023/01/21 03:46:04;;;;;;;3.05;2.20;;;-3.70;98.00;;;;;;5097933;28;20198;-64
2023/01/21 03:48:40;;;;;;;5.25;2.42;;;-3.70;98.00;;;;;;5115362;28;20216;-64
2023/01/21 03:51:13;;;;;;;3.72;2.90;;;-3.70;98.00;;;;;;5115661;28;20197;-64
2023/01/21 03:53:41;;;;;;;4.15;2.58;;;-3.70;98.00;;;;;;5115265;28;20242;-65
2023/01/21 03:56:09;;;;;;;4.37;3.13;;;-3.70;98.00;;;;;;5115207;28;20202;-65
2023/01/21 03:58:36;;;;;;;4.55;2.92;;;-3.80;98.00;;;;;;5115143;28;20505;-65
2023/01/21 04:01:06;;;;;;;2.47;2.03;;;-3.90;98.00;;;;;;5097232;28;20225;-64
2023/01/21 04:03:33;;;;;;;6.82;3.60;;;-4.00;98.00;;;;;;5080332;28;20212;-65
2023/01/21 04:06:00;;;;;;;4.25;2.63;;;-4.00;98.00;;;;;;5114795;28;20889;-65
2023/01/21 04:08:29;;;;;;;5.90;3.78;;;-4.00;98.00;;;;;;5096241;28;20777;-65
2023/01/21 04:10:56;;;;;;;6.07;3.78;;;-4.10;98.00;;;;;;5096422;28;20724;-66
2023/01/21 04:13:23;;;;;;;5.63;3.28;;;-4.00;98.00;;;;;;5115062;28;21104;-65
2023/01/21 04:15:51;;;;;;;3.15;2.47;;;-4.00;98.00;;;;;;5114975;28;20206;-65
2023/01/21 04:18:18;;;;;;;5.25;3.80;;;-3.90;98.00;;;;;;5115001;28;20663;-66
2023/01/21 04:20:46;;;;;;;5.25;2.65;;;-3.90;98.00;;;;;;5096775;28;20217;-65
2023/01/21 04:23:13;;;;;;;5.55;4.40;;;-3.90;98.00;;;;;;5114941;28;20209;-65
2023/01/21 04:25:42;;;;;;;6.65;2.40;;;-4.00;98.00;;;;;;5096766;28;20213;-65
2023/01/21 04:28:09;;;;;;;2.60;2.20;;;-4.10;98.00;;;;;;5115006;28;20544;-64
2023/01/21 04:30:36;;;;;;;4.10;2.30;;;-4.00;98.00;;;;;;5115226;28;20194;-65
2023/01/21 04:33:03;;;;;;;9.25;3.75;;;-3.80;98.00;;;;;;5113976;28;20209;-64
2023/01/21 04:35:32;;;;;;;4.25;2.53;;;-3.60;98.00;;;;;;5114800;28;20232;-65
2023/01/21 04:37:59;;;;;;;5.10;3.28;;;-3.70;98.00;;;;;;5114523;28;20205;-65
2023/01/21 04:40:26;;;;;;;2.92;2.47;;;-3.90;98.00;;;;;;5114495;28;20213;-64
2023/01/21 04:42:55;;;;;;;5.13;2.78;;;-4.00;98.00;;;;;;5096098;28;20193;-65
2023/01/21 04:45:23;;;;;;;3.78;2.38;;;-4.00;98.00;;;;;;5114463;28;20202;-65
2023/01/21 04:47:50;;;;;;;17.40;3.47;;;-4.00;98.00;;;;;;5113930;28;20550;-65
2023/01/21 04:50:19;;;;;;;4.60;3.22;;;-4.00;98.00;;;;;;5114306;28;20546;-65
2023/01/21 04:52:47;;;;;;;5.47;2.75;;;-4.10;98.00;;;;;;5114231;28;20212;-64
2023/01/21 04:55:14;;;;;;;3.72;3.58;;;-4.00;98.00;;;;;;5095883;28;20205;-65
2023/01/21 04:57:41;;;;;;;4.15;2.40;;;-4.00;98.00;;;;;;5096117;28;20232;-65
2023/01/21 05:00:11;;;;;;;4.15;2.85;;;-4.10;98.00;;;;;;5114003;28;20756;-65
2023/01/21 05:02:38;;;;;;;9.25;3.17;;;-4.30;98.00;;;;;;5113997;28;20651;-65
2023/01/21 05:05:07;;;;;;;3.58;2.55;;;-4.10;98.00;;;;;;5095768;28;20228;-64
2023/01/21 05:07:34;;;;;;;4.60;3.55;;;-4.00;98.00;;;;;;5095896;28;20205;-64
2023/01/21 05:10:01;;;;;;;6.20;3.95;;;-4.20;98.00;;;;;;5114089;28;20204;-64
2023/01/21 05:12:28;;;;;;;4.75;4.28;;;-4.30;98.00;;;;;;5113761;28;20678;-65
2023/01/21 05:14:56;;;;;;;2.42;2.33;;;-4.40;98.00;;;;;;5113883;28;20201;-64
2023/01/21 05:17:25;;;;;;;6.85;3.50;;;-4.30;98.00;;;;;;5113854;28;20297;-65
2023/01/21 05:19:52;;;;;;;8.90;3.75;;;-4.10;98.00;;;;;;5113711;28;20230;-64
2023/01/21 05:22:20;;;;;;;2.88;2.67;;;-4.10;98.00;;;;;;5113848;28;20676;-65
2023/01/21 05:24:47;;;;;;;6.47;3.47;;;-4.10;98.00;;;;;;5113810;28;20209;-64
2023/01/21 05:27:14;;;;;;;4.35;2.72;;;-4.00;98.00;;;;;;5113576;28;20201;-65
2023/01/21 05:29:41;;;;;;;3.70;3.22;;;-4.00;98.00;;;;;;5095942;28;20627;-64
2023/01/21 05:32:10;;;;;;;3.50;2.40;;;-4.00;98.00;;;;;;5113696;28;20213;-65
2023/01/21 05:34:38;;;;;;;7.97;4.18;;;-3.90;98.00;;;;;;5078736;28;20194;-64
2023/01/21 05:37:06;;;;;;;3.72;2.88;;;-3.90;98.00;;;;;;5113396;28;20682;-64
2023/01/21 05:39:33;;;;;;;6.63;4.32;;;-3.90;98.00;;;;;;5095499;28;20686;-64
2023/01/21 05:42:01;;;;;;;3.25;2.60;;;-4.00;98.00;;;;;;5113255;28;20196;-64
2023/01/21 05:44:28;;;;;;;11.10;2.85;;;-4.10;98.00;;;;;;5077601;28;20267;-65
2023/01/21 05:46:55;;;;;;;10.57;4.38;;;-4.10;98.00;;;;;;5094611;28;20213;-64
2023/01/21 05:49:22;;;;;;;3.15;2.45;;;-4.00;98.00;;;;;;5112860;28;20205;-64
2023/01/21 05:51:51;;;;;;;4.00;2.78;;;-4.10;98.00;;;;;;5078261;28;20213;-65
2023/01/21 05:54:18;;;;;;;4.15;2.50;;;-4.10;98.00;;;;;;5112702;28;20205;-64
2023/01/21 05:56:46;;;;;;;8.10;3.40;;;-4.00;98.00;;;;;;5112989;28;20205;-64
2023/01/21 05:59:14;;;;;;;6.07;4.05;;;-4.00;98.00;;;;;;5112880;28;20206;-65
2023/01/21 06:01:41;;;;;;;5.78;3.35;;;-4.00;98.00;;;;;;5112681;28;20236;-65
2023/01/21 06:04:08;;;;;;;5.00;2.67;;;-3.90;98.00;;;;;;5112902;28;20208;-64
2023/01/21 06:06:45;;;;;;;4.13;3.03;;;-3.80;98.00;;;;;;5112607;28;20205;-64
2023/01/21 06:09:13;;;;;;;2.72;2.53;;;-3.80;98.00;;;;;;5112706;28;20197;-64
2023/01/21 06:11:40;;;;;;;7.50;2.30;;;-3.70;98.00;;;;;;5112797;28;20574;-64
2023/01/21 06:14:08;;;;;;;9.02;3.97;;;-3.70;98.00;;;;;;5112684;28;20202;-64
2023/01/21 06:16:35;;;;;;;2.90;2.75;;;-3.60;98.00;;;;;;5112588;28;20201;-65
2023/01/21 06:19:02;;;;;;;4.50;2.92;;;-3.50;98.00;;;;;;5112289;28;20213;-65
2023/01/21 06:21:29;;;;;;;4.13;3.17;;;-3.30;98.00;;;;;;5112473;28;20579;-65
2023/01/21 06:23:56;;;;;;;3.50;2.25;;;-3.30;98.00;;;;;;5112795;28;20228;-65
2023/01/21 06:26:25;;;;;;;8.00;3.22;;;-3.30;98.00;;;;;;5112730;28;20206;-64
2023/01/21 06:28:56;;;;;;;4.65;2.70;;;-3.30;98.00;;;;;;5112713;28;20618;-65
2023/01/21 06:31:24;;;;;;;2.88;2.45;;;-3.30;98.00;;;;;;5112741;28;20309;-65
2023/01/21 06:33:53;;;;;;;4.22;3.03;;;-3.40;98.00;;;;;;5094638;28;20205;-64
2023/01/21 06:36:20;;;;;;;6.63;3.75;;;-3.50;98.00;;;;;;5112328;28;20205;-65
2023/01/21 06:38:47;;;;;;;3.80;2.72;;;-3.50;98.00;;;;;;5112411;28;20608;-64
2023/01/21 06:41:14;;;;;;;4.00;2.95;;;-3.50;98.00;;;;;;5112213;28;20281;-65
2023/01/21 06:43:43;;;;;;;6.65;3.63;;;-3.50;98.00;;;;;;5112250;28;20213;-64
2023/01/21 06:46:10;;;;;;;2.28;2.15;;;-3.40;98.00;;;;;;5112257;28;20238;-64
2023/01/21 06:48:37;;;;;;;2.63;2.47;;;-3.40;98.00;;;;;;5111867;28;20205;-64
2023/01/21 06:51:05;;;;;;;5.47;3.95;;;-3.30;98.00;;;;;;5094369;28;20202;-64
2023/01/21 06:53:32;;;;;;;3.25;3.08;;;-3.40;98.00;;;;;;5077142;28;20210;-64
2023/01/21 06:55:59;;;;;;;7.53;4.03;;;-3.40;98.00;;;;;;5112259;28;20266;-65
2023/01/21 06:58:26;;;;;;;4.65;2.85;;;-3.50;98.00;;;;;;5116251;28;20250;-65
2023/01/21 07:00:57;;;;;;;3.13;2.83;;;-3.40;98.00;;;;;;5116315;28;20643;-60
2023/01/21 07:03:24;;;;;;;3.97;2.92;;;-3.30;98.00;;;;;;5116498;28;20548;-61
2023/01/21 07:05:51;;;;;;;6.13;2.80;;;-3.10;98.00;;;;;;5116377;28;20691;-60
2023/01/21 07:08:19;;;;;;;5.55;3.85;;;-3.10;98.00;;;;;;5116342;28;20201;-60
2023/01/21 07:10:46;;;;;;;5.47;2.80;;;-3.10;98.00;;;;;;5116262;28;20228;-60
2023/01/21 07:13:13;;;;;;;2.30;2.10;;;-3.10;98.00;;;;;;5116117;28;20655;-61
2023/01/21 07:15:40;;;;;;;11.50;4.15;;;-3.00;98.00;;;;;;5116315;28;20546;-61
2023/01/21 07:18:09;;;;;;;17.67;3.53;;;-2.90;98.00;;;;;;5116113;28;20201;-61
2023/01/21 07:20:37;;;;;;;6.13;3.38;;;-3.00;98.00;;;;;;5116058;28;20266;-61
2023/01/21 07:23:05;;;;;;;5.03;3.17;;;-3.00;98.00;;;;;;5116213;28;20288;-61
2023/01/21 07:25:36;;;;;;;8.90;3.90;;;-3.00;98.00;;;;;;5116136;28;20232;-61
2023/01/21 07:28:03;;;;;;;5.13;2.70;;;-3.00;98.00;;;;;;5097944;28;20651;-61
2023/01/21 07:30:31;;;;;;;7.88;4.18;;;-3.00;98.00;;;;;;5115975;28;20197;-60
2023/01/21 07:32:58;;;;;;;4.25;3.30;;;-3.00;98.00;;;;;;5116117;28;20602;-61
2023/01/21 07:35:27;;;;;;;6.35;2.88;;;-2.80;98.00;;;;;;5097588;28;20198;-61
2023/01/21 07:37:54;;;;;;;3.95;3.20;;;-2.60;98.00;;;;;;5115678;28;20203;-60
2023/01/21 07:40:21;;;;;;;4.75;3.10;;;-2.60;98.00;;;;;;5080711;28;20261;-61
2023/01/21 07:42:51;;;;;;;9.10;4.28;;;-2.40;98.00;;;;;;5097446;28;20874;-61
2023/01/21 07:45:18;;;;;;;4.55;3.13;;;-2.30;98.00;;;;;;5115681;28;20264;-60
2023/01/21 07:47:46;;;;;;;8.68;4.40;;;-2.40;98.00;;;;;;5115133;28;20202;-61
2023/01/21 07:50:13;;;;;;;4.60;2.80;;;-2.40;98.00;;;;;;5115271;28;20651;-61
2023/01/21 07:52:42;;;;;;;5.38;2.90;;;-2.40;98.00;;;;;;5097436;28;20203;-60
2023/01/21 07:55:10;;;;;;;7.25;3.60;;;-2.40;98.00;;;;;;5115368;28;20209;-60
2023/01/21 07:57:38;;;;;;;3.55;3.17;;;-2.30;98.00;;;;;;5115271;28;20199;-60
2023/01/21 08:00:06;;;;;;;4.05;3.13;;;-2.30;98.00;;;;;;5113867;28;20207;-61
2023/01/21 08:02:33;;;;;;;5.55;2.92;;;-2.30;98.00;;;;;;5094863;28;20211;-61
2023/01/21 08:05:01;;;;;;;3.15;2.53;;;-2.30;98.00;;;;;;5094932;28;20210;-60
2023/01/21 08:07:28;;;;;;;5.35;3.10;;;-2.30;98.00;;;;;;5076444;28;20205;-60
2023/01/21 08:09:56;;;;;;;6.07;3.07;;;-2.20;98.00;;;;;;5094168;28;20663;-60
2023/01/21 08:12:23;;;;;;;6.87;3.70;;;-2.20;98.00;;;;;;5094744;28;20939;-61
2023/01/21 08:14:50;;;;;;;5.23;2.90;;;-2.20;98.00;;;;;;5094566;28;20807;-61
2023/01/21 08:17:17;;;;;;;3.20;2.83;;;-2.10;98.00;;;;;;5094799;28;20461;-60
2023/01/21 08:19:44;;;;;;;6.82;3.47;;;-2.00;98.00;;;;;;5094492;28;20452;-60
2023/01/21 08:22:12;;;;;;;8.23;3.93;;;-1.90;98.00;;;;;;5094702;28;20226;-60
2023/01/21 08:24:39;;;;;;;8.27;3.83;;;-1.80;98.00;;;;;;5094484;28;20462;-61
2023/01/21 08:27:07;;;;;;;4.50;2.77;;;-1.60;98.00;;;;;;5094728;28;20948;-60
2023/01/21 08:29:34;;;;;;;8.03;3.53;;;-1.60;98.00;;;;;;5094765;28;20483;-60
2023/01/21 08:32:02;;;;;;;3.97;2.80;;;-1.50;98.00;;;;;;5094793;28;20852;-60
2023/01/21 08:34:29;;;;;;;5.00;3.42;;;-1.40;98.00;;;;;;5096389;27;20469;-60
2023/01/21 08:36:56;;;;;;;7.72;3.50;;;-1.40;98.00;;;;;;5115357;27;20199;-60
2023/01/21 08:39:23;;;;;;;4.10;3.17;;;-1.30;98.00;;;;;;5113852;28;20210;-60
2023/01/21 08:41:51;;;;;;;7.28;3.58;;;-1.60;98.00;;;;;;5095664;28;20225;-60
2023/01/21 08:44:19;;;;;;;16.70;4.73;;;-1.60;98.00;;;;;;5113902;28;20663;-60
2023/01/21 08:46:46;;;;;;;4.80;3.55;;;-1.70;98.00;;;;;;5113746;28;20516;-60
2023/01/21 08:49:13;;;;;;;7.50;4.03;;;-1.70;98.00;;;;;;5113406;28;20196;-60
2023/01/21 08:51:40;;;;;;;5.10;3.05;;;-1.80;98.00;;;;;;5096355;28;20237;-60
2023/01/21 08:54:08;;;;;;;7.90;3.17;;;-1.80;98.00;;;;;;5096208;28;20189;-61
2023/01/21 08:56:35;;;;;;;4.60;3.15;;;-1.80;98.00;;;;;;5114330;28;20198;-61
2023/01/21 08:59:04;;;;;;;6.85;3.97;;;-1.80;98.00;;;;;;5096008;28;20212;-60
2023/01/21 09:01:34;;;;;;;9.00;3.88;;;-1.80;98.00;;;;;;5114090;28;20311;-61
2023/01/21 09:04:11;;;;;;;3.75;2.40;;;-1.60;98.00;;;;;;5095969;28;20201;-60
2023/01/21 09:06:39;;;;;;;6.57;3.13;;;-1.50;98.00;;;;;;5113531;28;20197;-60
2023/01/21 09:09:06;;;;;;;3.60;2.65;;;-1.50;98.00;;;;;;5113499;28;20835;-60
2023/01/21 09:11:33;;;;;;;4.83;3.33;;;-1.50;98.00;;;;;;5095244;28;20218;-60
2023/01/21 09:14:02;;;;;;;9.23;4.15;;;-1.60;98.00;;;;;;5095141;28;20864;-61
2023/01/21 09:16:31;;;;;;;4.13;3.33;;;-1.40;98.00;;;;;;5113102;28;20207;-61
2023/01/21 09:19:01;;;;;;;5.88;3.25;;;-1.30;98.00;;;;;;5112975;28;20234;-61
2023/01/21 09:21:28;;;;;;;9.32;3.35;;;-1.30;98.00;;;;;;5113042;28;20218;-60
2023/01/21 09:23:56;;;;;;;2.65;2.38;;;-1.30;98.00;;;;;;5113299;28;20292;-60
2023/01/21 09:26:26;;;;;;;4.72;4.32;;;-1.30;98.00;;;;;;5113162;28;20193;-60
2023/01/21 09:28:55;;;;;;;6.50;3.38;;;-1.20;98.00;;;;;;5113026;28;20280;-60
2023/01/21 09:31:24;;;;;;;6.10;3.83;;;-1.10;98.00;;;;;;5113305;28;20313;-61
2023/01/21 09:33:54;;;;;;;7.50;4.60;;;-1.20;98.00;;;;;;5112681;28;20452;-61
2023/01/21 09:36:24;;;;;;;4.93;3.45;;;-1.30;98.00;;;;;;5112651;28;20293;-60
2023/01/21 09:38:52;;;;;;;5.30;3.40;;;-1.40;98.00;;;;;;5113027;28;20211;-60
2023/01/21 09:41:25;;;;;;;14.33;4.20;;;-1.20;98.00;;;;;;5112842;28;20841;-61
2023/01/21 09:43:58;;;;;;;8.10;3.03;;;-1.20;98.00;;;;;;5112374;28;20456;-60
2023/01/21 09:46:50;;;;;;;4.97;2.97;;;-1.10;98.00;;;;;;5125324;27;20940;-61
2023/01/21 09:49:21;;;;;;;4.88;3.00;;;-1.10;98.00;;;;;;5505153;22;20452;-60
2023/01/21 09:52:03;;;;;;;7.10;3.17;;;-1.00;98.00;;;;;;5091689;28;20899;-61
2023/01/21 09:54:32;;;;;;;4.73;3.43;;;-0.90;98.00;;;;;;5091354;28;20465;-61
2023/01/21 09:57:33;;;;;;;5.93;4.03;;;-0.80;98.00;;;;;;5091044;28;20534;-60
2023/01/21 10:00:29;;;;;;;6.33;3.17;;;-0.80;98.00;;;;;;5071453;28;20199;-61
2023/01/21 10:03:03;;;;;;;4.67;3.33;;;-0.80;98.00;;;;;;5090456;28;20480;-60
2023/01/21 10:06:02;;;;;;;2.73;2.10;;;-0.80;98.00;;;;;;5091801;28;20552;-60
2023/01/21 10:08:43;;;;;;;5.30;4.43;;;-0.60;98.00;;;;;;5091655;28;20963;-60
2023/01/21 10:11:25;;;;;;;3.77;3.30;;;-0.60;98.00;;;;;;5091794;28;20453;-61
2023/01/21 10:14:09;;;;;;;2.77;2.60;;;-0.40;98.00;;;;;;5091692;28;20458;-60
2023/01/21 10:16:44;;;;;;;9.00;4.10;;;-0.50;98.00;;;;;;5091537;28;20471;-61
2023/01/21 10:19:17;;;;;;;7.72;3.97;;;-0.40;98.00;;;;;;5091536;28;20491;-60
2023/01/21 10:21:48;;;;;;;15.20;3.07;;;-0.40;98.00;;;;;;5091439;28;20607;-61
2023/01/21 10:24:20;;;;;;;5.90;3.27;;;-0.20;98.00;;;;;;5091600;28;20463;-61
2023/01/21 10:26:50;;;;;;;6.80;3.20;;;-0.10;98.00;;;;;;5091552;28;20456;-60
2023/01/21 10:29:19;;;;;;;5.20;3.80;;;-0.10;98.00;;;;;;5091621;28;20474;-60
2023/01/21 10:31:53;;;;;;;4.50;3.20;;;-0.10;98.00;;;;;;5091085;28;20465;-60
2023/01/21 10:34:20;;;;;;;6.17;3.23;;;-0.10;98.00;;;;;;5091534;28;20453;-60
2023/01/21 10:36:57;;;;;;;5.30;3.40;;;-0.10;98.00;;;;;;5091479;28;20468;-61
2023/01/21 10:39:37;;;;;;;9.13;4.67;;;-0.10;98.00;;;;;;5091294;28;20461;-61
2023/01/21 10:42:22;;;;;;;8.25;5.32;;;-0.20;98.00;;;;;;5091291;28;20897;-60
2023/01/21 10:44:57;;;;;;;7.33;4.23;;;-0.40;98.00;;;;;;5091133;28;20198;-60
2023/01/21 10:47:34;;;;;;;7.60;4.43;;;-0.50;98.00;;;;;;5091298;28;20543;-61
2023/01/21 10:50:11;;;;;;;8.90;4.20;;;-0.40;98.00;;;;;;5091144;28;20470;-61
2023/01/21 10:52:45;;;;;;;5.20;2.83;;;-0.30;98.00;;;;;;5091221;28;20463;-60
2023/01/21 10:55:25;;;;;;;18.73;6.90;;;-0.40;98.00;;;;;;5090195;28;20519;-61
2023/01/21 10:58:00;;;;;;;8.60;4.90;;;-0.30;98.00;;;;;;5091115;28;20476;-60
2023/01/21 11:00:31;;;;;;;8.63;4.37;;;-0.30;98.00;;;;;;5091271;28;20474;-61
2023/01/21 11:03:02;;;;;;;3.53;3.17;;;-0.20;98.00;;;;;;5091113;28;20551;-60
2023/01/21 11:05:31;;;;;;;10.80;4.57;;;0.00;98.00;;;;;;5089779;28;20461;-60
2023/01/21 11:07:58;;;;;;;4.73;2.73;;;0.10;98.00;;;;;;5091105;28;20463;-61
2023/01/21 11:10:27;;;;;;;7.70;3.13;;;0.10;98.00;;;;;;5091194;28;20943;-61
2023/01/21 11:12:55;;;;;;;4.23;4.00;;;0.20;98.00;;;;;;5090863;28;20447;-61
2023/01/21 11:15:25;;;;;;;6.60;3.50;;;0.10;98.00;;;;;;5091034;28;20467;-61
2023/01/21 11:17:55;;;;;;;7.90;4.07;;;0.00;98.00;;;;;;5089880;28;20459;-60
2023/01/21 11:20:29;;;;;;;3.90;2.77;;;-0.10;98.00;;;;;;5091625;28;20458;-60
2023/01/21 11:22:56;;;;;;;4.57;2.73;;;-0.10;98.00;;;;;;5091283;28;20853;-61
2023/01/21 11:25:39;;;;;;;5.63;3.80;;;-0.10;98.00;;;;;;5073968;28;20817;-60
2023/01/21 11:28:22;;;;;;;4.77;2.80;;;0.00;98.00;;;;;;5091659;28;20537;-61
2023/01/21 11:31:02;;;;;;;4.60;3.23;;;0.10;98.00;;;;;;5073697;28;20512;-60
2023/01/21 11:33:29;;;;;;;6.73;4.13;;;0.20;98.00;;;;;;5090729;28;20459;-61
2023/01/21 11:36:08;;;;;;;8.23;4.03;;;0.10;98.00;;;;;;5091467;28;20948;-60
2023/01/21 11:38:37;;;;;;;6.70;3.30;;;0.10;98.00;;;;;;5091191;28;20454;-60
2023/01/21 11:41:22;;;;;;;5.30;3.67;;;0.10;98.00;;;;;;5091109;28;20516;-61
2023/01/21 11:43:51;;;;;;;4.23;3.03;;;0.20;98.00;;;;;;5075851;28;20964;-60
2023/01/21 11:46:28;;;;;;;7.40;4.23;;;0.10;98.00;;;;;;5095068;28;20458;-61
2023/01/21 11:49:11;;;;;;;5.60;3.50;;;0.10;98.00;;;;;;5077755;28;20462;-61
2023/01/21 11:51:40;;;;;;;7.23;3.00;;;0.20;98.00;;;;;;5094635;28;20462;-61
2023/01/21 11:54:12;;;;;;;13.60;6.67;;;0.40;98.00;;;;;;5077128;28;20458;-60
2023/01/21 11:56:43;;;;;;;10.40;5.70;;;0.50;98.00;;;;;;5094867;28;20524;-60
2023/01/21 11:59:21;;;;;;;4.03;3.00;;;0.50;98.00;;;;;;5094794;28;20573;-61
2023/01/21 12:01:56;;;;;;;7.97;4.23;;;0.40;98.00;;;;;;5094722;28;20491;-61
2023/01/21 12:04:24;;;;;;;8.77;4.10;;;0.30;98.00;;;;;;5094667;28;20539;-60
2023/01/21 12:06:56;;;;;;;5.57;3.43;;;0.20;98.00;;;;;;5094740;28;20789;-61
2023/01/21 12:09:24;;;;;;;6.33;2.90;;;0.30;98.00;;;;;;5094676;28;20467;-60
2023/01/21 12:12:13;;;;;;;9.90;4.67;;;0.50;98.00;;;;;;5094301;28;20945;-61
2023/01/21 12:14:51;;;;;;;4.23;3.00;;;0.70;98.00;;;;;;5094602;28;20522;-61
2023/01/21 12:17:31;;;;;;;4.17;2.60;;;0.80;98.00;;;;;;5094600;28;20961;-61
2023/01/21 12:20:14;;;;;;;4.27;3.40;;;1.10;98.00;;;;;;5094467;28;20454;-61
2023/01/21 12:22:57;;;;;;;6.43;4.37;;;1.30;98.00;;;;;;5077413;28;20533;-61
2023/01/21 12:25:40;;;;;;;7.37;3.43;;;1.40;98.00;;;;;;5291514;22;20480;-60
2023/01/21 12:28:29;;;;;;;6.00;3.10;;;1.30;98.00;;;;;;5071282;28;20463;-61
2023/01/21 12:31:07;;;;;;;5.83;3.40;;;1.30;98.00;;;;;;5073286;28;20463;-60
2023/01/21 12:33:45;;;;;;;6.10;3.63;;;1.30;98.00;;;;;;5073457;28;20456;-60
2023/01/21 12:36:19;;;;;;;7.33;3.07;;;1.30;98.00;;;;;;5073404;28;20977;-60
2023/01/21 12:38:53;;;;;;;2.80;2.20;;;1.30;98.00;;;;;;5073087;28;20460;-61
2023/01/21 12:41:26;;;;;;;5.93;2.83;;;1.30;98.00;;;;;;5072976;28;20986;-61
2023/01/21 12:44:01;;;;;;;4.60;2.33;;;1.30;98.00;;;;;;5071587;28;20499;-61
2023/01/21 12:46:33;;;;;;;5.50;2.80;;;1.30;98.00;;;;;;5072796;28;20462;-61
2023/01/21 12:49:08;;;;;;;8.83;2.90;;;1.30;98.00;;;;;;5073594;28;20456;-61
2023/01/21 12:51:39;;;;;;;9.20;3.27;;;1.30;98.00;;;;;;5069909;28;21001;-61
2023/01/21 12:54:14;;;;;;;3.90;3.07;;;1.30;98.00;;;;;;5091902;28;20455;-61
2023/01/21 12:56:46;;;;;;;6.70;2.90;;;1.30;98.00;;;;;;5093949;28;20455;-60
2023/01/21 12:59:21;;;;;;;3.63;2.83;;;1.30;98.00;;;;;;5092357;28;20455;-60
2023/01/21 13:01:55;;;;;;;3.83;2.53;;;1.20;98.00;;;;;;5093428;28;20465;-60
2023/01/21 13:04:38;;;;;;;4.73;2.83;;;1.00;98.00;;;;;;5093067;28;20481;-61
2023/01/21 13:07:12;;;;;;;8.17;2.93;;;1.00;98.00;;;;;;5093494;28;20550;-61
2023/01/21 13:09:46;;;;;;;4.03;3.50;;;1.00;98.00;;;;;;5093087;28;20875;-60